Time;durP1;ratioP1;P1;durP2;ratioP2;P2;SDS_P1;SDS_P2;PMS_P1;PMS_P2;Temp;Humidity;BMP_temperature;BMP_pressure;BME280_temperature;BME280_humidity;BME280_pressure;Samples;Min_cycle;Max_cycle;Signal;HPM_P1;HPM_P2
2023/07/17 00:00:25;;;;;;;4.70;3.43;;;20.50;69.60;;;;;;5034293;28;20473;-70
2023/07/17 00:02:51;;;;;;;5.40;3.70;;;20.40;69.60;;;;;;5034247;28;20509;-70
2023/07/17 00:05:18;;;;;;;5.90;3.53;;;20.20;70.90;;;;;;5032813;28;20845;-71
2023/07/17 00:07:45;;;;;;;8.40;3.70;;;20.10;73.80;;;;;;5033959;28;20482;-71
2023/07/17 00:10:12;;;;;;;10.17;4.53;;;20.20;77.20;;;;;;5033775;28;20467;-70
2023/07/17 00:12:40;;;;;;;6.97;4.10;;;20.20;77.50;;;;;;5034132;28;20812;-71
2023/07/17 00:15:10;;;;;;;5.40;3.50;;;20.20;79.70;;;;;;5033909;28;20493;-71
2023/07/17 00:17:37;;;;;;;4.60;3.10;;;20.20;79.80;;;;;;5034030;28;20457;-71
2023/07/17 00:20:05;;;;;;;4.50;3.90;;;20.10;81.70;;;;;;5033836;28;20493;-70
2023/07/17 00:22:32;;;;;;;4.40;3.40;;;20.10;82.40;;;;;;5034538;28;20581;-70
2023/07/17 00:24:59;;;;;;;6.00;3.60;;;20.00;82.60;;;;;;5036398;28;20469;-71
2023/07/17 00:27:26;;;;;;;5.63;2.60;;;20.00;83.50;;;;;;5030429;28;20481;-70
2023/07/17 00:29:53;;;;;;;6.00;3.10;;;20.00;83.80;;;;;;5044855;28;20470;-70
2023/07/17 00:32:21;;;;;;;4.87;3.50;;;20.00;84.20;;;;;;5038926;28;20462;-69
2023/07/17 00:34:48;;;;;;;8.50;3.73;;;20.10;84.50;;;;;;5036820;28;20465;-70
2023/07/17 00:37:15;;;;;;;4.37;3.07;;;20.10;84.00;;;;;;5034690;28;20814;-70
2023/07/17 00:39:43;;;;;;;5.07;3.10;;;20.10;84.00;;;;;;5033868;28;20458;-70
2023/07/17 00:42:09;;;;;;;5.20;3.97;;;20.00;84.50;;;;;;5034292;28;20443;-70
2023/07/17 00:44:38;;;;;;;4.83;3.03;;;20.00;84.10;;;;;;5033728;28;20482;-70
2023/07/17 00:47:06;;;;;;;3.37;2.77;;;19.90;84.50;;;;;;5033825;28;20818;-70
2023/07/17 00:49:34;;;;;;;4.30;3.20;;;19.80;84.50;;;;;;5032495;28;20449;-70
2023/07/17 00:52:04;;;;;;;3.60;2.93;;;19.80;85.40;;;;;;5033750;28;20443;-70
2023/07/17 00:54:33;;;;;;;4.00;3.03;;;19.70;85.60;;;;;;5033743;28;20450;-70
2023/07/17 00:57:03;;;;;;;6.33;3.40;;;19.70;85.70;;;;;;5033727;28;20451;-70
2023/07/17 00:59:31;;;;;;;4.10;3.03;;;19.70;85.60;;;;;;5033729;28;20431;-70
2023/07/17 01:01:58;;;;;;;4.40;3.20;;;19.60;85.90;;;;;;5033864;28;20454;-70
2023/07/17 01:04:25;;;;;;;4.30;3.47;;;19.50;86.10;;;;;;5038181;28;20474;-71
2023/07/17 01:06:54;;;;;;;4.07;3.00;;;19.50;87.10;;;;;;5035331;28;20485;-71
2023/07/17 01:09:21;;;;;;;8.67;3.53;;;19.40;87.30;;;;;;5018789;28;20475;-70
2023/07/17 01:11:48;;;;;;;4.33;3.40;;;19.40;86.90;;;;;;5013450;28;20505;-70
2023/07/17 01:14:17;;;;;;;3.50;2.70;;;19.40;86.70;;;;;;5013616;28;20475;-71
2023/07/17 01:16:44;;;;;;;5.80;3.27;;;19.30;85.60;;;;;;5013614;28;20975;-71
2023/07/17 01:19:11;;;;;;;4.57;2.63;;;19.30;85.80;;;;;;5013783;28;20451;-71
2023/07/17 01:21:42;;;;;;;7.10;3.10;;;19.30;86.60;;;;;;5013798;28;20483;-71
2023/07/17 01:24:10;;;;;;;5.73;2.97;;;19.20;86.90;;;;;;5014102;28;20478;-71
2023/07/17 01:26:37;;;;;;;6.23;2.60;;;19.10;87.10;;;;;;5013822;28;20458;-70
2023/07/17 01:29:04;;;;;;;5.10;3.00;;;19.10;88.00;;;;;;5013440;28;20959;-71
2023/07/17 01:31:30;;;;;;;6.17;2.40;;;19.00;87.30;;;;;;5014089;28;20529;-71
2023/07/17 01:33:57;;;;;;;5.07;2.80;;;18.90;87.50;;;;;;5013499;28;20447;-71
2023/07/17 01:36:25;;;;;;;3.53;2.60;;;18.90;87.90;;;;;;5013634;28;20502;-70
2023/07/17 01:38:54;;;;;;;4.57;3.23;;;18.80;87.80;;;;;;5013224;28;20960;-69
2023/07/17 01:41:22;;;;;;;6.10;3.10;;;18.80;88.60;;;;;;5016706;28;20472;-70
2023/07/17 01:43:49;;;;;;;2.53;2.33;;;18.80;89.00;;;;;;5013689;28;20486;-70
2023/07/17 01:46:16;;;;;;;3.97;2.60;;;18.80;89.90;;;;;;5013939;28;20451;-71
2023/07/17 01:48:43;;;;;;;7.23;3.00;;;18.80;90.30;;;;;;5013423;28;20477;-70
2023/07/17 01:51:09;;;;;;;6.47;3.63;;;18.80;90.50;;;;;;5013655;28;20825;-70
2023/07/17 01:53:37;;;;;;;4.20;2.33;;;18.70;90.70;;;;;;5016814;28;20450;-70
2023/07/17 01:56:04;;;;;;;5.60;2.53;;;18.60;90.90;;;;;;5016477;28;20451;-70
2023/07/17 01:58:32;;;;;;;4.67;2.40;;;18.60;91.00;;;;;;5016505;28;20474;-69
2023/07/17 02:00:58;;;;;;;6.30;3.13;;;18.60;91.30;;;;;;5016595;28;20984;-69
2023/07/17 02:03:25;;;;;;;4.00;2.30;;;18.60;91.50;;;;;;5016545;28;20486;-70
2023/07/17 02:05:52;;;;;;;5.53;2.83;;;18.60;91.70;;;;;;5016421;28;20470;-70
2023/07/17 02:08:19;;;;;;;7.53;3.37;;;18.70;91.50;;;;;;5016728;28;20474;-70
2023/07/17 02:10:50;;;;;;;5.03;3.00;;;18.70;91.50;;;;;;5017025;28;20498;-70
2023/07/17 02:13:16;;;;;;;4.63;2.63;;;18.70;91.40;;;;;;5016373;28;20462;-70
2023/07/17 02:15:46;;;;;;;6.90;3.03;;;18.80;91.50;;;;;;5016379;28;20451;-69
2023/07/17 02:18:13;;;;;;;3.80;2.70;;;18.80;91.60;;;;;;5016160;28;20450;-70
2023/07/17 02:20:39;;;;;;;2.97;2.67;;;18.90;91.50;;;;;;5016265;28;20882;-70
2023/07/17 02:23:06;;;;;;;4.57;2.80;;;19.00;91.20;;;;;;5016073;28;20479;-69
2023/07/17 02:25:33;;;;;;;5.70;2.57;;;19.00;91.00;;;;;;5016183;28;20451;-70
2023/07/17 02:27:59;;;;;;;4.23;2.20;;;19.10;91.00;;;;;;5016169;28;20443;-70
2023/07/17 02:30:25;;;;;;;3.30;2.73;;;19.10;90.90;;;;;;5016116;28;20478;-69
2023/07/17 02:32:53;;;;;;;4.23;2.73;;;19.10;90.60;;;;;;5015910;28;20212;-70
2023/07/17 02:35:20;;;;;;;4.83;2.77;;;19.10;90.70;;;;;;5015708;28;20944;-70
2023/07/17 02:37:47;;;;;;;4.13;2.50;;;19.10;90.70;;;;;;5015572;28;20451;-70
2023/07/17 02:40:15;;;;;;;5.43;2.90;;;19.10;90.80;;;;;;5014629;28;20483;-70
2023/07/17 02:42:42;;;;;;;2.80;2.00;;;19.10;90.80;;;;;;5015192;28;20451;-70
2023/07/17 02:45:10;;;;;;;3.47;2.80;;;19.20;90.60;;;;;;5029167;28;20560;-70
2023/07/17 02:47:37;;;;;;;10.50;2.70;;;19.20;90.30;;;;;;5032618;28;20463;-69
2023/07/17 02:50:07;;;;;;;5.57;3.20;;;19.20;90.30;;;;;;5020682;28;20475;-70
2023/07/17 02:52:35;;;;;;;5.70;2.30;;;19.10;90.00;;;;;;5017051;28;20525;-70
2023/07/17 02:55:04;;;;;;;2.80;2.60;;;19.10;90.20;;;;;;5017023;28;20456;-70
2023/07/17 02:57:32;;;;;;;4.80;2.70;;;19.10;90.10;;;;;;5016176;28;20440;-70
2023/07/17 02:59:59;;;;;;;3.73;2.10;;;19.10;89.90;;;;;;5016006;28;20518;-70
2023/07/17 03:02:26;;;;;;;5.30;3.00;;;19.00;88.90;;;;;;5014529;28;20547;-69
2023/07/17 03:04:52;;;;;;;4.50;2.53;;;18.90;89.60;;;;;;5014936;28;20490;-70
2023/07/17 03:07:21;;;;;;;4.70;2.97;;;18.90;90.00;;;;;;5015889;28;20432;-69
2023/07/17 03:09:48;;;;;;;3.97;2.10;;;18.80;90.00;;;;;;5015951;28;20467;-70
2023/07/17 03:12:14;;;;;;;3.17;2.57;;;18.80;90.00;;;;;;5015980;28;20451;-70
2023/07/17 03:14:41;;;;;;;6.00;3.30;;;18.80;90.10;;;;;;5015461;28;20454;-70
2023/07/17 03:17:08;;;;;;;4.30;2.40;;;18.70;90.00;;;;;;5015561;28;20447;-70
2023/07/17 03:19:34;;;;;;;4.87;2.77;;;18.70;90.10;;;;;;5015596;28;20506;-70
2023/07/17 03:22:01;;;;;;;7.60;2.50;;;18.70;90.00;;;;;;5018932;28;20469;-70
2023/07/17 03:24:29;;;;;;;4.30;2.70;;;18.60;90.10;;;;;;5020437;28;20545;-70
2023/07/17 03:26:58;;;;;;;5.63;2.70;;;18.50;90.40;;;;;;5015451;28;20447;-70
2023/07/17 03:29:25;;;;;;;4.20;3.13;;;18.60;90.50;;;;;;5013907;28;20987;-70
2023/07/17 03:31:52;;;;;;;3.30;2.33;;;18.60;90.60;;;;;;5014863;28;21010;-70
2023/07/17 03:34:19;;;;;;;3.27;2.40;;;18.70;90.40;;;;;;5014960;28;20452;-70
2023/07/17 03:36:46;;;;;;;6.10;3.10;;;18.60;90.10;;;;;;5014801;28;20997;-70
2023/07/17 03:39:13;;;;;;;5.27;2.67;;;18.60;90.00;;;;;;5014870;28;20459;-71
2023/07/17 03:41:41;;;;;;;7.27;2.67;;;18.60;90.10;;;;;;5015055;28;20471;-70
2023/07/17 03:44:08;;;;;;;6.80;2.50;;;18.60;90.20;;;;;;5014856;28;20570;-70
2023/07/17 03:46:35;;;;;;;5.40;2.40;;;18.50;90.00;;;;;;5014718;28;20451;-70
2023/07/17 03:49:02;;;;;;;2.90;2.57;;;18.60;90.10;;;;;;5014851;28;20455;-70
2023/07/17 03:51:29;;;;;;;5.93;3.17;;;18.50;90.50;;;;;;5014823;28;20558;-69
2023/07/17 03:53:55;;;;;;;5.80;2.70;;;18.50;90.20;;;;;;5014683;28;20447;-70
2023/07/17 03:56:22;;;;;;;5.17;2.70;;;18.50;90.10;;;;;;5014565;28;20925;-69
2023/07/17 03:58:50;;;;;;;5.90;2.87;;;18.60;90.20;;;;;;5014435;28;20447;-70
2023/07/17 04:01:17;;;;;;;6.80;2.87;;;18.60;90.10;;;;;;5014177;28;20840;-70
2023/07/17 04:03:44;;;;;;;6.00;2.80;;;18.60;89.70;;;;;;5014551;28;20487;-70
2023/07/17 04:06:10;;;;;;;2.70;2.20;;;18.60;89.70;;;;;;5014402;28;20828;-69
2023/07/17 04:08:37;;;;;;;3.80;2.07;;;18.60;89.70;;;;;;5013741;28;20460;-68
2023/07/17 04:11:04;;;;;;;3.60;3.20;;;18.60;90.00;;;;;;5014169;28;20471;-69
2023/07/17 04:13:30;;;;;;;4.57;2.80;;;18.60;89.90;;;;;;5014376;28;20478;-70
2023/07/17 04:16:01;;;;;;;4.60;3.20;;;18.70;90.40;;;;;;5013289;28;20455;-69
2023/07/17 04:18:28;;;;;;;7.90;3.00;;;18.60;89.80;;;;;;5014127;28;20479;-69
2023/07/17 04:20:54;;;;;;;7.00;2.87;;;18.70;89.70;;;;;;5014239;28;20471;-70
2023/07/17 04:23:21;;;;;;;5.67;3.33;;;18.70;89.70;;;;;;5013738;28;20478;-69
2023/07/17 04:25:48;;;;;;;3.13;2.20;;;18.70;89.90;;;;;;5014061;28;20490;-68
2023/07/17 04:28:15;;;;;;;4.80;2.90;;;18.70;89.90;;;;;;5013670;28;20478;-69
2023/07/17 04:30:42;;;;;;;5.37;2.70;;;18.70;89.80;;;;;;5014005;28;20471;-69
2023/07/17 04:33:10;;;;;;;3.57;2.40;;;18.70;89.40;;;;;;5014091;28;20451;-69
2023/07/17 04:35:39;;;;;;;4.57;2.73;;;18.70;89.30;;;;;;5015582;28;20447;-69
2023/07/17 04:38:06;;;;;;;4.53;3.37;;;18.60;89.90;;;;;;5017699;28;20448;-68
2023/07/17 04:40:33;;;;;;;7.53;3.30;;;18.60;90.00;;;;;;5014887;28;20468;-69
2023/07/17 04:43:00;;;;;;;4.63;2.73;;;18.60;90.00;;;;;;5014052;28;20501;-69
2023/07/17 04:45:27;;;;;;;5.10;2.60;;;18.70;90.00;;;;;;5013891;28;20479;-69
2023/07/17 04:47:54;;;;;;;5.93;2.77;;;18.70;90.00;;;;;;5014150;28;20542;-69
2023/07/17 04:50:26;;;;;;;8.47;2.57;;;18.70;89.80;;;;;;5014411;28;20479;-69
2023/07/17 04:52:53;;;;;;;8.30;3.43;;;18.70;89.60;;;;;;5014888;28;20439;-68
2023/07/17 04:55:20;;;;;;;6.57;3.50;;;18.70;90.00;;;;;;5016736;28;20862;-69
2023/07/17 04:57:47;;;;;;;5.47;3.30;;;18.70;89.80;;;;;;5018150;28;20447;-69
2023/07/17 05:00:15;;;;;;;6.03;3.50;;;18.70;90.10;;;;;;5017634;28;20467;-68
2023/07/17 05:02:42;;;;;;;6.37;3.30;;;18.60;90.30;;;;;;5025091;28;20443;-67
2023/07/17 05:05:09;;;;;;;7.33;2.80;;;18.60;90.20;;;;;;5026405;28;20490;-69
2023/07/17 05:07:39;;;;;;;6.00;2.90;;;18.60;90.60;;;;;;5018844;28;20451;-67
2023/07/17 05:10:08;;;;;;;3.53;3.03;;;18.50;90.50;;;;;;5017568;28;20486;-68
2023/07/17 05:12:34;;;;;;;5.03;2.90;;;18.60;90.60;;;;;;5016515;28;20501;-68
2023/07/17 05:15:01;;;;;;;5.10;3.23;;;18.50;90.70;;;;;;5015526;28;20447;-68
2023/07/17 05:17:29;;;;;;;6.63;3.67;;;18.40;90.90;;;;;;5015924;28;20451;-68
2023/07/17 05:19:55;;;;;;;8.57;3.47;;;18.40;90.90;;;;;;5014441;28;21043;-68
2023/07/17 05:22:23;;;;;;;5.90;3.13;;;18.40;91.10;;;;;;5014545;28;20455;-68
2023/07/17 05:24:51;;;;;;;8.60;2.70;;;18.50;91.10;;;;;;5015042;28;20849;-68
2023/07/17 05:27:17;;;;;;;5.07;3.00;;;18.40;91.20;;;;;;5016859;28;20813;-68
2023/07/17 05:29:44;;;;;;;5.40;2.87;;;18.40;91.30;;;;;;5018579;28;20471;-68
2023/07/17 05:32:11;;;;;;;5.73;3.23;;;18.40;91.40;;;;;;5018233;28;20467;-68
2023/07/17 05:34:38;;;;;;;6.67;3.07;;;18.40;91.50;;;;;;5017645;28;20446;-68
2023/07/17 05:37:05;;;;;;;7.00;2.60;;;18.40;91.60;;;;;;5017178;28;20963;-68
2023/07/17 05:39:32;;;;;;;7.67;3.43;;;18.40;91.20;;;;;;5020693;28;20486;-69
2023/07/17 05:42:00;;;;;;;4.97;3.47;;;18.50;91.20;;;;;;5020685;28;20459;-69
2023/07/17 05:44:26;;;;;;;4.67;3.13;;;18.50;90.90;;;;;;5018041;28;20490;-69
2023/07/17 05:46:53;;;;;;;7.80;3.20;;;18.50;90.90;;;;;;5017478;28;20968;-69
2023/07/17 05:49:20;;;;;;;11.50;3.30;;;18.40;91.00;;;;;;5017393;28;20447;-69
2023/07/17 05:51:47;;;;;;;8.47;3.33;;;18.30;90.90;;;;;;5017284;28;20482;-69
2023/07/17 05:54:14;;;;;;;6.37;4.37;;;18.40;91.40;;;;;;5016738;28;20453;-70
2023/07/17 05:56:40;;;;;;;6.60;3.00;;;18.40;91.30;;;;;;5021942;28;20822;-69
2023/07/17 05:59:09;;;;;;;6.07;3.20;;;18.40;90.80;;;;;;5036316;28;20838;-69
2023/07/17 06:01:36;;;;;;;4.43;2.90;;;18.40;90.80;;;;;;5036229;28;20983;-69
2023/07/17 06:04:03;;;;;;;7.93;3.27;;;18.50;91.10;;;;;;5036570;28;20438;-69
2023/07/17 06:06:30;;;;;;;5.20;2.60;;;18.60;91.00;;;;;;5037022;28;20943;-69
2023/07/17 06:08:58;;;;;;;5.70;3.57;;;18.60;90.90;;;;;;5036655;28;20457;-69
2023/07/17 06:11:25;;;;;;;6.17;2.93;;;18.70;90.70;;;;;;5037014;28;20463;-69
2023/07/17 06:13:51;;;;;;;6.70;3.20;;;18.60;89.90;;;;;;5036493;28;20970;-69
2023/07/17 06:16:20;;;;;;;6.03;3.43;;;18.60;90.30;;;;;;5036529;28;20466;-69
2023/07/17 06:18:46;;;;;;;6.37;3.10;;;18.70;90.80;;;;;;5036366;28;20508;-69
2023/07/17 06:21:13;;;;;;;5.27;3.13;;;18.80;91.20;;;;;;5036634;28;20474;-69
2023/07/17 06:23:40;;;;;;;8.70;3.20;;;18.90;90.20;;;;;;5037136;28;20450;-70
2023/07/17 06:26:07;;;;;;;7.53;2.87;;;19.00;89.40;;;;;;5036179;28;20481;-69
2023/07/17 06:28:33;;;;;;;10.23;3.70;;;19.10;88.70;;;;;;5034653;28;20455;-69
2023/07/17 06:31:00;;;;;;;4.57;3.00;;;19.10;89.10;;;;;;5036185;28;20474;-69
2023/07/17 06:33:28;;;;;;;6.47;3.27;;;19.20;89.00;;;;;;5035997;28;20461;-69
2023/07/17 06:35:55;;;;;;;4.27;3.00;;;19.20;88.00;;;;;;5035131;28;20553;-69
2023/07/17 06:38:22;;;;;;;4.13;3.00;;;19.20;86.40;;;;;;5035626;28;20450;-69
2023/07/17 06:40:53;;;;;;;9.23;3.70;;;19.20;85.70;;;;;;5036033;28;20474;-69
2023/07/17 06:43:20;;;;;;;4.73;3.10;;;19.20;86.40;;;;;;5036071;28;20488;-69
2023/07/17 06:45:47;;;;;;;6.67;3.37;;;19.30;87.70;;;;;;5035875;28;20486;-69
2023/07/17 06:48:14;;;;;;;6.87;3.30;;;19.40;86.00;;;;;;5036475;28;20461;-70
2023/07/17 06:50:43;;;;;;;7.50;3.07;;;19.50;85.30;;;;;;5036002;28;20480;-71
2023/07/17 06:53:09;;;;;;;6.87;3.80;;;19.50;83.40;;;;;;5035601;28;20450;-70
2023/07/17 06:55:36;;;;;;;6.87;3.60;;;19.60;82.70;;;;;;5035743;28;20449;-70
2023/07/17 06:58:03;;;;;;;5.97;3.60;;;19.70;81.60;;;;;;5035396;28;20861;-71
2023/07/17 07:00:30;;;;;;;6.57;3.37;;;19.80;82.10;;;;;;5035618;28;20881;-70
2023/07/17 07:03:00;;;;;;;6.23;3.13;;;19.80;80.30;;;;;;5034319;28;20501;-70
2023/07/17 07:05:27;;;;;;;5.57;3.40;;;19.90;80.00;;;;;;5035097;28;21033;-70
2023/07/17 07:07:55;;;;;;;6.60;3.83;;;19.90;81.10;;;;;;5032807;28;20473;-70
2023/07/17 07:10:22;;;;;;;6.87;3.40;;;20.00;79.90;;;;;;5015791;28;20471;-70
2023/07/17 07:12:48;;;;;;;8.73;3.93;;;20.10;79.60;;;;;;5015931;28;20448;-70
2023/07/17 07:15:15;;;;;;;6.23;3.37;;;20.10;79.50;;;;;;5016161;28;20451;-71
2023/07/17 07:17:42;;;;;;;7.33;3.60;;;20.30;79.40;;;;;;5023820;28;20515;-70
2023/07/17 07:20:10;;;;;;;5.67;3.30;;;20.40;78.10;;;;;;5025598;28;20467;-70
2023/07/17 07:22:37;;;;;;;8.93;4.07;;;20.40;76.50;;;;;;5020122;28;20527;-70
2023/07/17 07:25:06;;;;;;;12.07;4.23;;;20.40;75.40;;;;;;5022761;28;20483;-70
2023/07/17 07:27:33;;;;;;;6.67;4.30;;;20.60;77.00;;;;;;5021948;28;20462;-71
2023/07/17 07:30:00;;;;;;;7.00;5.13;;;20.70;75.00;;;;;;5018058;28;20494;-70
2023/07/17 07:32:26;;;;;;;7.17;4.93;;;20.80;74.20;;;;;;5016330;28;20455;-71
2023/07/17 07:34:53;;;;;;;5.97;4.90;;;20.90;73.60;;;;;;5015779;28;20456;-70
2023/07/17 07:37:20;;;;;;;8.20;5.20;;;21.00;72.00;;;;;;5015583;28;20474;-71
2023/07/17 07:39:46;;;;;;;8.27;5.00;;;21.20;72.00;;;;;;5015657;28;20475;-70
2023/07/17 07:42:16;;;;;;;7.47;4.80;;;21.30;67.90;;;;;;5015484;28;20486;-70
2023/07/17 07:44:43;;;;;;;7.93;4.93;;;21.30;70.30;;;;;;5015016;28;20497;-71
2023/07/17 07:47:10;;;;;;;5.10;4.67;;;21.30;69.20;;;;;;5014811;28;20949;-70
2023/07/17 07:49:36;;;;;;;11.20;4.80;;;21.40;69.80;;;;;;5014793;28;20455;-71
2023/07/17 07:52:03;;;;;;;6.57;4.60;;;21.50;69.60;;;;;;5015301;28;20448;-70
2023/07/17 07:54:30;;;;;;;6.07;3.93;;;21.60;70.00;;;;;;5017444;28;20487;-70
2023/07/17 07:56:57;;;;;;;8.77;5.07;;;21.60;67.30;;;;;;5016983;28;20459;-71
2023/07/17 07:59:25;;;;;;;6.20;4.57;;;21.70;67.80;;;;;;5014811;28;20467;-71
2023/07/17 08:01:52;;;;;;;7.80;3.90;;;22.00;67.90;;;;;;5015176;28;20448;-70
2023/07/17 08:04:19;;;;;;;8.90;5.10;;;22.10;66.60;;;;;;5014457;28;20976;-71
2023/07/17 08:06:46;;;;;;;8.80;5.63;;;22.10;63.40;;;;;;5014239;28;20490;-71
2023/07/17 08:09:12;;;;;;;6.33;4.77;;;22.30;66.60;;;;;;5014863;28;20474;-71
2023/07/17 08:11:40;;;;;;;7.17;4.93;;;22.40;64.50;;;;;;5014803;28;20473;-70
2023/07/17 08:14:07;;;;;;;7.73;4.83;;;22.60;61.90;;;;;;5014982;28;20447;-71
2023/07/17 08:16:35;;;;;;;8.20;4.93;;;22.70;60.80;;;;;;5014547;28;20452;-71
2023/07/17 08:19:02;;;;;;;6.80;4.37;;;22.80;59.60;;;;;;5014073;28;20948;-70
2023/07/17 08:21:28;;;;;;;8.33;5.27;;;22.90;60.80;;;;;;5014527;28;20471;-71
2023/07/17 08:23:55;;;;;;;9.03;4.97;;;22.90;57.90;;;;;;5014461;28;20455;-71
2023/07/17 08:26:22;;;;;;;9.27;5.87;;;23.00;58.80;;;;;;5014098;28;20880;-71
2023/07/17 08:28:49;;;;;;;8.33;5.00;;;23.20;58.90;;;;;;5014286;28;20458;-71
2023/07/17 08:31:16;;;;;;;7.80;4.90;;;23.20;57.00;;;;;;5013006;28;20482;-71
2023/07/17 08:33:44;;;;;;;7.83;4.43;;;23.30;57.60;;;;;;5014482;28;20494;-71
2023/07/17 08:36:11;;;;;;;7.10;5.10;;;23.20;56.60;;;;;;5014380;28;20455;-71
2023/07/17 08:38:38;;;;;;;7.80;4.70;;;23.20;55.90;;;;;;5013777;28;20971;-71
2023/07/17 08:41:04;;;;;;;11.23;5.00;;;23.10;56.10;;;;;;5014131;28;20503;-71
2023/07/17 08:43:31;;;;;;;7.17;4.70;;;23.10;55.90;;;;;;5013722;28;20971;-71
2023/07/17 08:45:59;;;;;;;7.57;5.03;;;23.00;56.30;;;;;;5013807;28;20479;-71
2023/07/17 08:48:27;;;;;;;11.30;4.27;;;22.90;55.90;;;;;;5013894;28;20451;-71
2023/07/17 08:50:57;;;;;;;8.40;5.13;;;22.90;55.70;;;;;;5012582;28;20478;-70
2023/07/17 08:53:24;;;;;;;8.27;5.20;;;22.90;56.20;;;;;;5014153;28;20459;-71
2023/07/17 08:55:53;;;;;;;6.63;4.30;;;23.00;56.00;;;;;;5014097;28;20482;-71
2023/07/17 08:58:21;;;;;;;10.80;5.13;;;23.20;55.90;;;;;;5014132;28;20451;-71
2023/07/17 09:00:50;;;;;;;10.40;6.40;;;23.50;55.50;;;;;;5013886;28;20502;-71
2023/07/17 09:03:17;;;;;;;5.90;4.90;;;23.60;55.30;;;;;;5017858;28;20829;-71
2023/07/17 09:05:44;;;;;;;8.33;5.00;;;23.80;55.30;;;;;;5017749;28;20522;-71
2023/07/17 09:08:13;;;;;;;10.00;5.27;;;24.00;55.90;;;;;;5018230;28;20448;-71
2023/07/17 09:10:40;;;;;;;5.83;4.80;;;23.90;53.80;;;;;;5018395;28;20491;-71
2023/07/17 09:13:07;;;;;;;8.77;4.40;;;24.00;54.50;;;;;;5018543;28;20443;-69
2023/07/17 09:15:34;;;;;;;9.13;4.83;;;24.10;52.50;;;;;;5018682;28;20450;-69
2023/07/17 09:18:01;;;;;;;5.90;4.43;;;24.30;54.40;;;;;;5018134;28;20458;-69
2023/07/17 09:20:28;;;;;;;6.33;4.10;;;24.50;52.10;;;;;;5016581;28;20892;-68
2023/07/17 09:22:57;;;;;;;6.73;4.57;;;24.50;52.00;;;;;;5018158;28;20550;-69
2023/07/17 09:25:28;;;;;;;5.93;4.20;;;24.50;50.70;;;;;;5017895;28;20481;-69
2023/07/17 09:27:55;;;;;;;6.30;4.23;;;24.40;50.40;;;;;;5017843;28;20925;-70
2023/07/17 09:30:23;;;;;;;8.83;4.50;;;24.50;49.90;;;;;;5018002;28;20824;-71
2023/07/17 09:32:51;;;;;;;6.60;4.30;;;24.50;49.90;;;;;;5020439;28;20832;-70
2023/07/17 09:35:22;;;;;;;7.10;5.53;;;24.70;51.30;;;;;;5029433;28;20450;-70
2023/07/17 09:37:49;;;;;;;6.83;4.03;;;24.90;49.80;;;;;;5027322;28;20853;-71
2023/07/17 09:40:19;;;;;;;5.97;4.30;;;25.00;48.20;;;;;;5022212;28;20471;-70
2023/07/17 09:42:52;;;;;;;5.13;4.50;;;24.90;49.40;;;;;;5020307;28;20459;-71
2023/07/17 09:45:20;;;;;;;11.23;4.30;;;25.00;48.10;;;;;;5018397;28;20440;-70
2023/07/17 09:47:49;;;;;;;11.23;4.63;;;24.90;48.00;;;;;;5017821;28;20978;-71
2023/07/17 09:50:18;;;;;;;4.63;4.17;;;24.90;49.50;;;;;;5018309;28;20513;-70
2023/07/17 09:52:45;;;;;;;7.13;4.27;;;24.80;48.90;;;;;;5017873;28;20443;-71
2023/07/17 09:55:14;;;;;;;7.67;4.80;;;24.90;48.70;;;;;;5030959;28;20443;-71
2023/07/17 09:57:45;;;;;;;6.23;4.50;;;25.20;49.40;;;;;;5035346;28;20869;-70
2023/07/17 10:00:18;;;;;;;7.93;5.63;;;25.40;48.20;;;;;;5036973;28;20465;-70
2023/07/17 10:02:53;;;;;;;8.07;5.07;;;25.60;47.40;;;;;;5036988;28;20501;-71
2023/07/17 10:05:21;;;;;;;7.60;5.10;;;25.80;48.30;;;;;;5036809;28;20461;-71
2023/07/17 10:07:51;;;;;;;9.03;4.60;;;26.30;45.90;;;;;;5034675;28;20869;-70
2023/07/17 10:10:19;;;;;;;8.60;5.30;;;26.60;44.70;;;;;;5016861;28;20482;-71
2023/07/17 10:12:47;;;;;;;8.20;5.07;;;26.90;45.60;;;;;;5018296;28;20482;-71
2023/07/17 10:15:16;;;;;;;10.83;5.73;;;27.30;45.30;;;;;;5025082;28;20458;-71
2023/07/17 10:17:43;;;;;;;7.90;5.03;;;27.60;42.60;;;;;;5024735;28;20447;-71
2023/07/17 10:20:11;;;;;;;7.80;4.93;;;27.50;42.80;;;;;;5019375;28;21019;-71
2023/07/17 10:22:43;;;;;;;14.10;6.43;;;27.40;42.00;;;;;;5017017;28;20479;-71
2023/07/17 10:25:22;;;;;;;6.77;5.60;;;27.50;42.40;;;;;;5016939;28;20436;-70
2023/07/17 10:27:56;;;;;;;5.60;4.93;;;27.50;42.00;;;;;;5016275;28;20431;-71
2023/07/17 10:30:27;;;;;;;7.50;4.70;;;27.70;41.50;;;;;;5015943;28;20470;-71
2023/07/17 10:33:10;;;;;;;5.87;4.90;;;27.60;41.40;;;;;;5016558;28;20438;-71
2023/07/17 10:35:47;;;;;;;8.70;4.77;;;28.10;41.70;;;;;;5016331;28;20438;-70
2023/07/17 10:38:15;;;;;;;8.40;4.87;;;28.50;40.90;;;;;;5015626;28;20443;-71
2023/07/17 10:40:42;;;;;;;13.63;5.10;;;28.60;38.60;;;;;;5016138;28;20879;-71
2023/07/17 10:43:13;;;;;;;13.00;5.50;;;28.50;37.70;;;;;;5015900;28;20447;-71
2023/07/17 10:45:42;;;;;;;9.70;5.73;;;28.30;39.30;;;;;;5014881;28;20443;-71
2023/07/17 10:48:09;;;;;;;11.03;5.43;;;28.00;40.50;;;;;;5015787;28;20450;-71
2023/07/17 10:50:36;;;;;;;7.10;5.60;;;27.50;40.20;;;;;;5015972;28;20481;-71
2023/07/17 10:53:03;;;;;;;9.03;5.33;;;27.60;41.90;;;;;;5015999;28;20448;-71
2023/07/17 10:55:30;;;;;;;7.13;6.20;;;27.90;39.60;;;;;;4998619;28;20466;-71
2023/07/17 10:57:58;;;;;;;10.13;5.70;;;27.70;40.00;;;;;;5015822;28;20451;-71
2023/07/17 11:00:25;;;;;;;8.40;4.87;;;27.40;40.70;;;;;;5015666;28;20475;-71
2023/07/17 11:02:56;;;;;;;7.90;5.93;;;27.00;40.80;;;;;;5015368;28;20455;-71
2023/07/17 11:05:23;;;;;;;14.20;5.23;;;26.80;41.70;;;;;;5015472;28;20458;-71
2023/07/17 11:07:49;;;;;;;7.23;5.20;;;26.40;42.00;;;;;;5015467;28;20482;-70
2023/07/17 11:10:16;;;;;;;5.60;4.73;;;26.60;42.90;;;;;;5015937;28;20546;-71
2023/07/17 11:12:44;;;;;;;10.13;5.70;;;27.10;42.00;;;;;;5014513;28;20451;-71
2023/07/17 11:15:15;;;;;;;9.40;5.30;;;27.20;41.60;;;;;;5015457;28;20455;-71
2023/07/17 11:17:42;;;;;;;5.93;5.33;;;26.70;40.00;;;;;;5015832;28;20444;-71
2023/07/17 11:20:12;;;;;;;5.50;4.40;;;26.40;41.80;;;;;;5015503;28;20473;-71
2023/07/17 11:22:40;;;;;;;5.90;5.20;;;26.10;42.90;;;;;;5014883;28;20454;-70
2023/07/17 11:25:08;;;;;;;5.00;4.50;;;25.70;43.00;;;;;;5015424;28;20459;-70
2023/07/17 11:27:36;;;;;;;7.87;5.17;;;25.50;43.90;;;;;;5014950;28;20483;-72
2023/07/17 11:30:14;;;;;;;8.00;4.77;;;25.30;44.20;;;;;;5015084;28;20501;-70
2023/07/17 11:32:41;;;;;;;10.07;4.57;;;25.20;44.10;;;;;;5015296;28;20428;-70
2023/07/17 11:35:12;;;;;;;11.10;5.13;;;25.40;45.00;;;;;;5014944;28;20459;-71
2023/07/17 11:37:40;;;;;;;8.60;5.33;;;25.50;44.70;;;;;;5014973;28;20435;-71
2023/07/17 11:40:08;;;;;;;8.43;5.30;;;25.60;44.90;;;;;;5014510;28;20972;-71
2023/07/17 11:42:57;;;;;;;8.73;5.00;;;25.80;44.40;;;;;;5014934;28;20448;-71
2023/07/17 11:45:25;;;;;;;8.20;5.33;;;26.20;44.70;;;;;;5013853;28;20432;-72
2023/07/17 11:47:53;;;;;;;5.87;4.93;;;26.60;42.90;;;;;;5014382;28;20932;-71
2023/07/17 11:50:25;;;;;;;7.27;5.13;;;26.90;41.40;;;;;;5015831;28;20471;-71
2023/07/17 11:53:04;;;;;;;6.37;4.80;;;27.30;41.10;;;;;;5024241;28;20428;-70
2023/07/17 11:55:35;;;;;;;7.70;5.27;;;27.50;39.00;;;;;;5023829;28;20427;-70
2023/07/17 11:58:03;;;;;;;6.37;4.43;;;27.90;39.90;;;;;;5019878;28;20420;-71
2023/07/17 12:00:29;;;;;;;5.23;4.73;;;28.10;39.30;;;;;;5017061;28;20475;-71
2023/07/17 12:02:56;;;;;;;6.50;5.53;;;28.30;38.50;;;;;;5015980;28;20878;-71
2023/07/17 12:05:24;;;;;;;6.13;4.50;;;28.70;39.10;;;;;;5015007;28;20459;-71
2023/07/17 12:07:51;;;;;;;8.93;5.53;;;28.90;37.50;;;;;;5014660;28;20487;-70
2023/07/17 12:10:18;;;;;;;5.40;4.50;;;29.40;36.70;;;;;;5014668;28;20851;-71
2023/07/17 12:12:45;;;;;;;8.43;5.27;;;29.20;36.00;;;;;;5014765;28;20509;-71
2023/07/17 12:15:12;;;;;;;8.50;4.40;;;30.00;35.50;;;;;;5014365;28;20455;-71
2023/07/17 12:17:38;;;;;;;6.83;4.93;;;31.20;32.60;;;;;;5014250;28;20450;-69
2023/07/17 12:20:07;;;;;;;5.57;5.00;;;31.70;32.60;;;;;;5014464;28;20494;-69
2023/07/17 12:22:35;;;;;;;6.83;5.47;;;31.50;31.70;;;;;;5014321;28;20964;-69
2023/07/17 12:25:02;;;;;;;6.80;4.83;;;31.60;31.40;;;;;;5014232;28;20944;-70
2023/07/17 12:27:29;;;;;;;5.13;4.50;;;32.40;30.70;;;;;;5014777;28;20498;-69
2023/07/17 12:29:56;;;;;;;5.33;4.83;;;33.40;29.90;;;;;;5019246;28;20474;-68
2023/07/17 12:32:23;;;;;;;8.93;4.70;;;33.60;29.50;;;;;;5014576;28;20449;-69
2023/07/17 12:34:50;;;;;;;7.17;5.20;;;33.90;27.60;;;;;;5014552;28;20457;-70
2023/07/17 12:37:17;;;;;;;5.07;4.50;;;33.70;28.10;;;;;;5013495;28;20516;-69
2023/07/17 12:39:45;;;;;;;6.23;5.10;;;33.90;28.60;;;;;;5013961;28;20467;-69
2023/07/17 12:42:12;;;;;;;9.00;4.50;;;34.40;27.50;;;;;;5014576;28;20447;-69
2023/07/17 12:44:39;;;;;;;4.57;3.73;;;35.20;26.30;;;;;;5013986;28;20442;-69
2023/07/17 12:47:06;;;;;;;5.40;4.90;;;35.40;25.00;;;;;;5012818;28;20478;-69